Time;durP1;ratioP1;P1;durP2;ratioP2;P2;SDS_P1;SDS_P2;PMS_P1;PMS_P2;Temp;Humidity;BMP_temperature;BMP_pressure;BME280_temperature;BME280_humidity;BME280_pressure;Samples;Min_cycle;Max_cycle;Signal;HPM_P1;HPM_P2
2022/05/27 00:01:27;;;;;;;11.40;5.87;;;;;;;37.38;40.27;101388.59;5032764;28;20475;-74
2022/05/27 00:03:54;;;;;;;13.10;6.73;;;;;;;37.40;40.07;101388.31;5033070;28;20450;-74
2022/05/27 00:06:20;;;;;;;22.30;6.77;;;;;;;37.38;40.35;101384.00;5033123;28;20478;-75
2022/05/27 00:08:47;;;;;;;12.23;6.07;;;;;;;37.36;40.27;101379.97;5033097;28;20497;-74
2022/05/27 00:11:13;;;;;;;18.23;6.80;;;;;;;37.35;40.12;101381.06;5016552;28;20408;-74
2022/05/27 00:13:39;;;;;;;15.50;9.13;;;;;;;37.38;40.60;101380.47;5032692;28;20435;-75
2022/05/27 00:16:05;;;;;;;12.63;5.10;;;;;;;37.41;40.16;101395.34;5033049;28;20918;-75
2022/05/27 00:18:31;;;;;;;14.47;5.63;;;;;;;37.36;40.21;101374.56;5032626;28;20522;-74
2022/05/27 00:20:58;;;;;;;16.93;5.97;;;;;;;37.34;40.20;101379.47;5032479;28;20462;-74
2022/05/27 00:23:24;;;;;;;26.27;6.43;;;;;;;37.31;40.03;101385.41;5032668;28;20434;-74
2022/05/27 00:25:50;;;;;;;20.77;7.73;;;;;;;37.30;40.65;101390.00;5032542;28;20435;-74
2022/05/27 00:28:17;;;;;;;22.97;8.40;;;;;;;37.27;40.38;101378.97;5032359;28;20778;-74
2022/05/27 00:30:43;;;;;;;17.33;6.67;;;;;;;37.28;40.63;101383.28;5032456;28;20809;-74
2022/05/27 00:33:09;;;;;;;13.60;5.87;;;;;;;37.31;40.58;101382.69;5032335;28;20797;-73
2022/05/27 00:35:36;;;;;;;11.00;6.33;;;;;;;37.33;40.19;101384.03;5032653;28;20412;-74
2022/05/27 00:38:02;;;;;;;14.13;6.97;;;;;;;37.33;40.47;101372.41;5032174;28;20477;-74
2022/05/27 00:40:38;;;;;;;16.00;6.27;;;;;;;37.33;40.23;101388.66;5033900;28;20402;-75
2022/05/27 00:43:05;;;;;;;21.00;6.00;;;;;;;37.32;40.67;101376.19;5032143;28;20996;-74
2022/05/27 00:45:34;;;;;;;17.30;6.30;;;;;;;37.30;40.63;101384.59;5048779;28;20497;-74
2022/05/27 00:48:03;;;;;;;21.83;8.50;;;;;;;37.31;40.51;101374.59;5032225;28;20414;-74
2022/05/27 00:50:40;;;;;;;21.83;6.07;;;;;;;37.28;40.35;101375.19;5032049;28;20446;-75
2022/05/27 00:53:08;;;;;;;12.93;7.03;;;;;;;37.28;40.54;101381.38;5032106;28;20565;-74
2022/05/27 00:55:41;;;;;;;14.37;6.23;;;;;;;37.34;40.56;101385.66;5031955;28;20941;-74
2022/05/27 00:58:32;;;;;;;21.93;6.87;;;;;;;37.34;40.61;101391.09;5031967;28;20459;-74
2022/05/27 01:01:00;;;;;;;23.03;8.53;;;;;;;37.38;40.44;101391.28;5031688;28;20601;-75
2022/05/27 01:03:29;;;;;;;10.37;5.67;;;;;;;37.40;40.56;101380.22;5029695;28;20462;-75
2022/05/27 01:05:55;;;;;;;19.30;6.53;;;;;;;37.36;40.54;101379.97;5037087;28;20439;-74
2022/05/27 01:08:24;;;;;;;18.43;6.57;;;;;;;37.35;40.50;101379.16;5028613;28;20412;-75
2022/05/27 01:11:11;;;;;;;23.37;6.37;;;;;;;37.23;40.89;101386.84;5028342;28;20500;-75
2022/05/27 01:14:01;;;;;;;13.50;6.20;;;;;;;37.32;40.37;101381.59;5013546;28;20397;-74
2022/05/27 01:16:48;;;;;;;19.37;6.97;;;;;;;37.38;40.25;101392.13;5011854;28;20424;-74
2022/05/27 01:22:32;;;;;;;13.43;7.50;;;;;;;37.29;40.86;101398.44;5013182;28;20387;-74
2022/05/27 01:25:39;;;;;;;16.60;5.87;;;;;;;37.28;40.99;101386.00;5028131;28;20500;-75
2022/05/27 01:28:12;;;;;;;13.00;6.80;;;;;;;37.28;40.67;101383.28;5027950;28;20412;-75
2022/05/27 01:30:57;;;;;;;14.10;7.90;;;;;;;37.29;40.60;101371.38;5013344;28;20397;-73
2022/05/27 01:33:39;;;;;;;17.97;6.77;;;;;;;37.25;40.61;101376.53;5028084;28;20935;-75
2022/05/27 01:36:32;;;;;;;17.53;5.43;;;;;;;37.29;40.77;101361.34;5028064;28;20416;-74
2022/05/27 01:39:35;;;;;;;17.30;6.13;;;;;;;37.31;40.45;101363.75;5028046;28;20432;-74
2022/05/27 01:42:23;;;;;;;26.43;10.30;;;;;;;37.37;39.79;101359.91;5028341;28;20404;-74
2022/05/27 01:44:54;;;;;;;15.80;6.87;;;;;;;37.32;40.18;101354.53;5013383;28;20400;-74
2022/05/27 01:47:41;;;;;;;16.07;6.53;;;;;;;37.34;40.36;101361.31;5028300;28;20974;-74
2022/05/27 01:50:28;;;;;;;17.07;6.57;;;;;;;37.39;40.35;101360.47;5028006;28;20436;-74
2022/05/27 01:53:13;;;;;;;13.53;6.03;;;;;;;37.34;40.11;101352.41;5013309;28;20880;-75
2022/05/27 01:55:46;;;;;;;15.80;7.50;;;;;;;37.40;40.26;101364.78;5027836;28;20476;-76
2022/05/27 01:58:20;;;;;;;14.53;7.30;;;;;;;37.39;39.99;101355.03;5013137;28;20522;-76
2022/05/27 02:00:49;;;;;;;9.93;6.30;;;;;;;37.41;40.29;101352.03;5011090;28;20493;-76
2022/05/27 02:03:34;;;;;;;23.23;6.33;;;;;;;37.40;40.75;101336.91;5027861;28;20798;-76
2022/05/27 02:06:22;;;;;;;12.70;5.77;;;;;;;37.44;40.47;101343.31;5027579;28;20420;-76
2022/05/27 02:08:52;;;;;;;13.03;4.97;;;;;;;37.45;40.11;101353.09;5027619;28;20448;-74
2022/05/27 02:11:20;;;;;;;15.60;5.97;;;;;;;37.47;40.26;101348.16;5012947;28;20484;-74
2022/05/27 02:13:55;;;;;;;15.23;8.03;;;;;;;37.42;40.57;101346.34;5027731;28;20475;-74
2022/05/27 02:16:29;;;;;;;15.53;6.53;;;;;;;37.34;40.78;101352.41;5029953;28;20466;-74
2022/05/27 02:19:03;;;;;;;23.17;8.97;;;;;;;37.31;40.98;101352.94;5032094;28;20432;-74
2022/05/27 02:21:44;;;;;;;14.50;6.50;;;;;;;37.27;40.79;101355.44;5031707;28;20428;-74
2022/05/27 02:24:25;;;;;;;11.70;5.83;;;;;;;37.21;41.32;101364.72;5031736;28;20462;-74
2022/05/27 02:26:59;;;;;;;17.40;8.07;;;;;;;37.19;41.51;101357.97;5031627;28;20867;-74
2022/05/27 02:29:30;;;;;;;15.30;8.20;;;;;;;37.17;41.32;101363.66;5031490;28;20429;-75
2022/05/27 02:32:06;;;;;;;31.50;11.13;;;;;;;36.94;42.16;101369.88;5031459;28;20412;-75
2022/05/27 02:37:28;;;;;;;22.70;10.07;;;;;;;36.59;42.79;101372.63;5016199;28;20443;-75
2022/05/27 02:39:57;;;;;;;17.27;10.40;;;;;;;36.53;43.12;101372.97;5014874;28;20408;-74
2022/05/27 02:42:49;;;;;;;29.20;13.90;;;;;;;36.40;43.41;101362.78;5015036;28;20511;-74
2022/05/27 02:45:35;;;;;;;25.93;12.70;;;;;;;36.47;43.37;101360.59;5014560;28;20412;-74
2022/05/27 02:48:15;;;;;;;26.20;14.03;;;;;;;36.32;43.74;101358.78;5031371;28;20907;-75
2022/05/27 02:50:54;;;;;;;26.33;15.53;;;;;;;36.30;43.00;101364.47;5014630;28;20420;-74
2022/05/27 02:53:54;;;;;;;25.37;17.63;;;;;;;36.30;43.78;101355.56;5031002;28;20426;-74
2022/05/27 02:56:43;;;;;;;65.60;35.03;;;;;;;36.11;43.80;101358.16;5030990;28;20413;-74
2022/05/27 02:59:14;;;;;;;24.37;16.57;;;;;;;36.01;44.23;101363.63;5014503;28;20554;-74
2022/05/27 03:01:40;;;;;;;29.10;18.87;;;;;;;35.74;44.39;101366.75;5015474;28;21000;-74
2022/05/27 03:04:07;;;;;;;37.83;17.60;;;;;;;35.66;45.02;101373.50;5015945;28;20895;-74
2022/05/27 03:07:02;;;;;;;37.07;20.03;;;;;;;35.80;44.91;101388.03;5031098;28;20424;-74
2022/05/27 03:09:41;;;;;;;39.13;27.50;;;;;;;35.86;44.55;101396.91;5030711;28;20432;-74
2022/05/27 03:12:24;;;;;;;50.07;39.97;;;;;;;35.91;44.42;101394.22;5030671;28;20466;-74
2022/05/27 03:15:02;;;;;;;38.00;29.97;;;;;;;36.05;44.41;101386.28;5014093;28;20411;-75
2022/05/27 03:18:02;;;;;;;42.07;28.13;;;;;;;36.01;44.44;101394.13;5015610;28;20483;-74
2022/05/27 03:20:56;;;;;;;55.30;31.10;;;;;;;35.89;44.69;101392.81;5014127;28;20412;-75
2022/05/27 03:23:31;;;;;;;29.20;19.90;;;;;;;35.84;45.11;101382.84;5030411;28;20405;-74
2022/05/27 03:26:16;;;;;;;34.37;14.63;;;;;;;35.77;45.50;101379.66;5015372;28;20436;-74
2022/05/27 03:28:53;;;;;;;22.17;12.87;;;;;;;35.91;44.85;101382.53;5013187;28;20440;-75
2022/05/27 03:31:28;;;;;;;23.17;12.07;;;;;;;35.82;44.91;101381.53;5013724;28;20475;-75
2022/05/27 03:34:26;;;;;;;21.13;11.67;;;;;;;35.27;46.79;101384.19;5013746;28;20445;-75
2022/05/27 03:37:06;;;;;;;26.37;11.03;;;;;;;35.27;46.62;101393.06;5005553;28;20539;-74
2022/05/27 03:39:47;;;;;;;32.60;15.47;;;;;;;35.14;46.93;101390.16;5013655;28;20439;-74
2022/05/27 03:42:15;;;;;;;21.67;12.53;;;;;;;35.17;46.78;101389.59;5030143;28;20419;-74
2022/05/27 03:45:00;;;;;;;23.93;13.07;;;;;;;35.14;47.11;101398.25;5013683;28;20413;-74
2022/05/27 03:47:26;;;;;;;21.53;15.70;;;;;;;35.37;46.42;101394.13;5013349;28;20809;-74
2022/05/27 03:49:52;;;;;;;33.30;12.70;;;;;;;35.36;46.13;101395.19;5013554;28;20420;-74
2022/05/27 03:52:23;;;;;;;28.20;15.47;;;;;;;35.33;46.05;101395.75;5013460;28;20425;-74
2022/05/27 03:54:49;;;;;;;23.73;12.10;;;;;;;35.25;46.51;101395.25;5029927;28;20416;-74
2022/05/27 03:57:15;;;;;;;22.80;11.77;;;;;;;35.33;46.32;101384.97;5013294;28;20453;-74
2022/05/27 03:59:41;;;;;;;29.80;14.70;;;;;;;35.61;45.77;101392.44;5013113;28;20415;-74
2022/05/27 04:02:07;;;;;;;29.03;13.60;;;;;;;35.55;45.46;101398.94;5013344;28;20442;-74
2022/05/27 04:04:33;;;;;;;30.77;12.90;;;;;;;35.23;46.21;101393.91;5013275;28;20419;-74
2022/05/27 04:06:59;;;;;;;21.63;12.93;;;;;;;35.47;46.07;101388.72;5013486;28;20413;-74
2022/05/27 04:09:26;;;;;;;31.77;11.90;;;;;;;35.62;45.95;101393.25;5013221;28;20437;-74
2022/05/27 04:11:54;;;;;;;27.63;11.23;;;;;;;35.75;45.18;101396.16;5029491;28;20463;-74
2022/05/27 04:14:21;;;;;;;21.07;11.63;;;;;;;35.91;45.23;101396.03;5013089;28;20408;-74
2022/05/27 04:16:48;;;;;;;31.53;16.90;;;;;;;35.92;44.67;101401.22;5012837;28;20846;-74
2022/05/27 04:19:16;;;;;;;37.67;24.77;;;;;;;35.94;45.02;101412.53;5013029;28;20415;-74
2022/05/27 04:21:42;;;;;;;26.27;19.40;;;;;;;35.95;44.88;101408.75;5029486;28;20428;-74
2022/05/27 04:24:08;;;;;;;24.93;15.17;;;;;;;36.03;44.86;101402.78;5012742;28;20412;-74
2022/05/27 04:26:35;;;;;;;28.60;16.00;;;;;;;36.08;44.62;101403.81;5014702;28;20408;-74
2022/05/27 04:29:01;;;;;;;29.60;14.13;;;;;;;36.13;44.39;101401.06;5029234;28;20416;-75
2022/05/27 04:31:27;;;;;;;28.23;14.97;;;;;;;36.13;44.64;101406.47;5012816;28;20407;-75
2022/05/27 04:33:55;;;;;;;35.10;16.67;;;;;;;36.00;44.49;101419.50;5012689;28;20440;-74
2022/05/27 04:36:21;;;;;;;26.67;17.97;;;;;;;35.84;44.82;101427.94;5012621;28;20416;-74
2022/05/27 04:38:48;;;;;;;22.53;14.00;;;;;;;35.64;45.20;101434.25;5012649;28;20479;-74
2022/05/27 04:41:14;;;;;;;24.43;13.53;;;;;;;35.46;45.63;101435.66;5012533;28;20448;-75
2022/05/27 04:43:40;;;;;;;20.73;13.87;;;;;;;35.25;45.90;101443.00;5012577;28;20487;-74
2022/05/27 04:46:06;;;;;;;21.50;12.53;;;;;;;35.08;46.70;101440.59;5028981;28;20416;-74
2022/05/27 04:48:32;;;;;;;23.23;12.60;;;;;;;35.11;46.50;101445.47;5012343;28;20415;-74
2022/05/27 04:50:58;;;;;;;23.07;13.30;;;;;;;35.08;46.30;101454.06;5012397;28;20443;-74
2022/05/27 04:53:25;;;;;;;22.87;13.60;;;;;;;35.18;46.24;101445.16;5014262;28;20405;-74
2022/05/27 04:55:51;;;;;;;33.33;17.10;;;;;;;35.23;46.04;101439.75;5012274;28;20424;-74
2022/05/27 04:58:17;;;;;;;29.53;21.83;;;;;;;35.22;46.42;101436.25;5012230;28;21006;-74
2022/05/27 05:00:45;;;;;;;38.30;26.23;;;;;;;35.08;46.71;101442.47;5012006;28;20460;-74
2022/05/27 05:03:12;;;;;;;39.87;20.27;;;;;;;35.13;46.10;101450.56;5012115;28;20463;-75
2022/05/27 05:05:39;;;;;;;37.93;20.33;;;;;;;35.33;45.81;101442.41;5012035;28;20509;-75
2022/05/27 05:08:33;;;;;;;33.43;18.70;;;;;;;35.21;46.58;101450.81;5012063;28;20420;-74
2022/05/27 05:11:01;;;;;;;35.13;17.83;;;;;;;35.08;45.94;101432.50;5011914;28;20440;-74
2022/05/27 05:13:29;;;;;;;30.23;14.30;;;;;;;35.04;46.20;101436.81;5012047;28;20841;-74
2022/05/27 05:15:55;;;;;;;17.10;13.10;;;;;;;34.78;46.68;101430.63;5011856;28;20535;-75
2022/05/27 05:18:21;;;;;;;19.60;11.20;;;;;;;34.77;46.88;101431.69;5011964;28;20460;-74
2022/05/27 05:20:47;;;;;;;22.83;12.13;;;;;;;34.83;47.02;101425.22;5011969;28;21830;-74
2022/05/27 05:23:13;;;;;;;29.40;11.80;;;;;;;34.93;46.34;101427.97;5028215;28;20420;-74
2022/05/27 05:25:39;;;;;;;23.60;10.07;;;;;;;34.79;46.62;101421.44;5011762;28;20518;-74
2022/05/27 05:28:05;;;;;;;26.53;13.20;;;;;;;34.71;46.91;101424.69;5011720;28;20448;-74
2022/05/27 05:30:31;;;;;;;17.80;12.50;;;;;;;34.67;47.15;101424.41;5011791;28;20420;-74
2022/05/27 05:32:57;;;;;;;19.07;12.87;;;;;;;34.70;46.86;101426.59;5028067;28;20419;-75
2022/05/27 05:35:24;;;;;;;26.80;14.20;;;;;;;34.79;46.62;101429.53;5011645;28;20432;-74
2022/05/27 05:37:51;;;;;;;27.13;13.90;;;;;;;34.68;47.15;101431.44;5011656;28;20452;-74
2022/05/27 05:40:18;;;;;;;24.60;16.67;;;;;;;34.73;47.00;101436.00;5027973;28;20409;-74
2022/05/27 05:42:47;;;;;;;30.13;16.47;;;;;;;34.79;46.68;101428.72;5011665;28;20535;-74
2022/05/27 05:45:15;;;;;;;28.67;16.13;;;;;;;35.08;46.28;101429.81;5011678;28;20504;-74
2022/05/27 05:47:42;;;;;;;24.23;15.90;;;;;;;35.33;45.67;101442.41;5011582;28;20412;-75
2022/05/27 05:50:09;;;;;;;27.80;17.77;;;;;;;35.23;45.59;101443.25;5012823;28;20807;-74
2022/05/27 05:52:35;;;;;;;40.73;20.50;;;;;;;35.22;46.10;101438.94;5011349;28;20788;-72
2022/05/27 05:55:01;;;;;;;32.50;19.40;;;;;;;35.21;46.16;101441.91;5011492;28;20420;-76
2022/05/27 05:57:27;;;;;;;26.37;17.53;;;;;;;35.38;45.43;101439.72;5011628;28;20472;-74
2022/05/27 05:59:55;;;;;;;28.63;18.03;;;;;;;35.50;45.36;101437.53;5012779;28;20470;-74
2022/05/27 06:02:22;;;;;;;25.00;17.27;;;;;;;35.50;45.40;101436.75;5011557;28;20408;-74
2022/05/27 06:04:48;;;;;;;33.20;20.23;;;;;;;35.40;45.45;101447.53;5011426;28;20476;-75
2022/05/27 06:07:14;;;;;;;32.87;19.23;;;;;;;35.28;45.65;101455.91;5011447;28;20499;-74
2022/05/27 06:09:41;;;;;;;37.80;21.27;;;;;;;35.24;45.47;101457.56;5012988;28;20516;-74
2022/05/27 06:12:08;;;;;;;55.50;20.20;;;;;;;35.47;45.23;101461.56;4995186;28;20427;-74
2022/05/27 06:14:37;;;;;;;34.57;23.03;;;;;;;35.39;45.29;101457.50;5013142;28;20384;-74
2022/05/27 06:17:04;;;;;;;47.53;24.53;;;;;;;35.30;45.40;101467.25;5011408;28;21025;-74
2022/05/27 06:19:30;;;;;;;30.43;20.87;;;;;;;35.28;45.70;101474.78;5027800;28;20810;-74
2022/05/27 06:21:56;;;;;;;45.67;21.87;;;;;;;35.25;45.71;101468.06;5012925;28;20446;-74
2022/05/27 06:24:22;;;;;;;42.50;22.37;;;;;;;35.37;45.79;101466.97;5011267;28;20416;-74
2022/05/27 06:26:48;;;;;;;37.77;23.13;;;;;;;35.41;45.13;101463.44;5011982;28;20424;-74
2022/05/27 06:34:43;;;;;;;34.43;20.20;;;;;;;35.39;45.18;101454.00;5012862;28;20476;-75
2022/05/27 06:37:14;;;;;;;39.10;23.03;;;;;;;35.42;45.59;101456.13;5011154;28;20452;-74
2022/05/27 06:39:41;;;;;;;41.80;22.00;;;;;;;35.36;45.52;101459.94;5012778;28;20428;-74
2022/05/27 06:42:10;;;;;;;32.27;22.10;;;;;;;35.42;45.58;101465.09;5011113;28;20478;-74
2022/05/27 06:44:37;;;;;;;52.87;24.10;;;;;;;35.57;45.13;101458.84;5011042;28;20412;-74
2022/05/27 06:47:05;;;;;;;23.40;18.03;;;;;;;35.79;44.61;101445.00;5011150;28;20412;-74
2022/05/27 06:49:32;;;;;;;40.03;25.60;;;;;;;35.81;44.61;101453.63;5027450;28;20483;-75
2022/05/27 06:51:58;;;;;;;28.40;21.00;;;;;;;35.98;43.92;101459.50;5011059;28;20420;-74
2022/05/27 06:54:25;;;;;;;32.17;21.97;;;;;;;36.17;44.11;101466.97;5010989;28;20500;-74
2022/05/27 06:56:52;;;;;;;31.40;23.60;;;;;;;36.17;43.53;101472.34;5012439;28;20396;-74
2022/05/27 06:59:21;;;;;;;34.73;21.93;;;;;;;36.25;43.49;101463.66;5027414;28;20444;-75
2022/05/27 07:01:48;;;;;;;31.13;23.33;;;;;;;36.25;43.08;101474.47;5010736;28;20558;-74
2022/05/27 07:04:15;;;;;;;32.80;20.97;;;;;;;36.43;43.44;101467.63;5016240;28;20539;-74
2022/05/27 07:06:46;;;;;;;33.47;21.27;;;;;;;36.40;42.96;101457.34;5026532;28;20935;-74
2022/05/27 07:09:15;;;;;;;39.73;22.50;;;;;;;36.48;43.19;101456.78;5033044;28;20440;-73
2022/05/27 07:11:43;;;;;;;31.93;20.77;;;;;;;36.35;43.40;101460.91;5043725;28;20419;-73
2022/05/27 07:14:09;;;;;;;32.87;22.63;;;;;;;36.44;42.81;101461.13;5033045;28;20431;-73
2022/05/27 07:16:36;;;;;;;24.87;17.30;;;;;;;36.42;43.15;101458.72;5032677;28;20404;-72
2022/05/27 07:19:02;;;;;;;32.63;20.07;;;;;;;36.47;42.94;101458.69;5032937;28;20514;-75
2022/05/27 07:21:28;;;;;;;33.27;15.57;;;;;;;36.47;42.80;101464.09;5033844;28;20415;-73
2022/05/27 07:23:55;;;;;;;25.83;13.93;;;;;;;36.53;42.40;101462.16;5033002;28;20416;-74
2022/05/27 07:26:23;;;;;;;26.60;14.90;;;;;;;36.51;42.52;101459.72;5033103;28;20416;-75
2022/05/27 07:28:49;;;;;;;24.13;12.57;;;;;;;36.61;42.58;101460.72;5033633;28;20422;-71
2022/05/27 07:31:17;;;;;;;22.80;11.43;;;;;;;36.77;42.13;101452.22;5033324;28;20420;-73
2022/05/27 07:33:45;;;;;;;21.67;10.40;;;;;;;36.73;42.09;101453.88;5032231;28;20399;-73
2022/05/27 07:36:12;;;;;;;26.30;12.23;;;;;;;36.79;41.83;101455.44;5032879;28;20438;-73
2022/05/27 07:38:38;;;;;;;28.87;13.10;;;;;;;36.72;42.18;101463.06;5031910;28;20455;-72
2022/05/27 07:41:05;;;;;;;19.90;11.20;;;;;;;36.81;42.57;101455.16;5032611;28;20440;-71
2022/05/27 07:43:32;;;;;;;29.33;13.20;;;;;;;36.92;42.09;101455.91;5030215;28;20411;-72
2022/05/27 07:45:59;;;;;;;26.50;14.13;;;;;;;36.93;42.17;101447.50;5032922;28;20506;-75
2022/05/27 07:48:26;;;;;;;16.50;8.93;;;;;;;37.09;41.92;101456.28;5031842;28;20441;-73
2022/05/27 07:50:52;;;;;;;16.80;10.93;;;;;;;37.19;41.40;101458.03;5029070;28;20450;-73
2022/05/27 07:53:19;;;;;;;20.83;10.10;;;;;;;37.10;41.55;101458.69;5015501;28;20471;-75
2022/05/27 07:55:45;;;;;;;20.80;12.90;;;;;;;37.12;41.49;101464.59;5031621;28;20798;-73
2022/05/27 07:58:12;;;;;;;23.73;12.07;;;;;;;36.95;42.42;101469.63;5016615;28;20530;-76
2022/05/27 08:00:38;;;;;;;24.03;14.40;;;;;;;36.93;42.27;101482.66;5016500;28;20471;-76
2022/05/27 08:03:05;;;;;;;31.30;14.50;;;;;;;37.28;41.88;101483.41;5049527;28;20411;-77
2022/05/27 08:05:33;;;;;;;30.13;13.00;;;;;;;37.26;41.48;101488.25;5015633;28;20419;-75
2022/05/27 08:08:00;;;;;;;24.90;13.20;;;;;;;37.25;41.33;101492.88;5033727;28;20453;-75
2022/05/27 08:10:37;;;;;;;25.23;13.23;;;;;;;37.00;42.30;101490.41;5033198;28;20430;-74
2022/05/27 08:13:04;;;;;;;26.90;13.13;;;;;;;36.90;42.55;101498.66;5032559;28;20465;-75
2022/05/27 08:15:30;;;;;;;21.17;10.90;;;;;;;37.22;41.64;101489.94;5031980;28;20403;-76
2022/05/27 08:17:56;;;;;;;24.33;13.07;;;;;;;37.19;41.73;101491.31;5031458;28;20447;-75
2022/05/27 08:20:25;;;;;;;24.67;13.17;;;;;;;37.34;41.73;101493.91;5031225;28;20420;-75
2022/05/27 08:22:53;;;;;;;35.60;16.70;;;;;;;37.50;41.38;101491.00;5014978;28;20443;-75
2022/05/27 08:25:21;;;;;;;45.10;15.80;;;;;;;37.58;41.44;101510.16;5028592;28;20422;-75
2022/05/27 08:27:48;;;;;;;30.63;14.30;;;;;;;37.55;41.60;101509.91;5032562;28;20407;-75
2022/05/27 08:30:20;;;;;;;22.17;12.27;;;;;;;37.40;41.47;101510.09;5031073;28;20412;-78
2022/05/27 08:32:49;;;;;;;20.17;11.30;;;;;;;37.28;42.28;101511.25;5032482;28;20434;-77
2022/05/27 08:38:09;;;;;;;29.93;12.77;;;;;;;37.36;42.06;101507.13;5029754;28;20868;-75
2022/05/27 08:41:00;;;;;;;42.20;15.40;;;;;;;37.45;42.10;101515.47;5031278;28;20446;-74
2022/05/27 08:43:41;;;;;;;23.83;11.10;;;;;;;37.45;41.63;101520.88;5044815;28;20414;-79
2022/05/27 08:46:18;;;;;;;22.30;9.97;;;;;;;37.29;42.02;101512.88;5032202;28;20498;-78
2022/05/27 08:48:49;;;;;;;15.57;10.67;;;;;;;37.26;41.94;101520.72;5048781;28;20766;-76
2022/05/27 08:51:37;;;;;;;31.53;8.40;;;;;;;37.55;42.23;101531.56;5032095;28;21001;-76
2022/05/27 08:54:12;;;;;;;22.00;14.20;;;;;;;37.63;41.60;101529.06;5032149;28;20918;-76
2022/05/27 08:59:47;;;;;;;21.00;10.33;;;;;;;37.86;41.08;101527.44;5033302;28;20430;-76
2022/05/27 09:02:27;;;;;;;22.07;11.30;;;;;;;37.92;41.23;101528.97;5031969;28;20431;-76
2022/05/27 09:05:05;;;;;;;24.33;10.70;;;;;;;37.94;40.82;101528.72;5031884;28;20426;-75
2022/05/27 09:07:37;;;;;;;20.93;10.37;;;;;;;37.98;40.83;101526.22;5031936;28;20422;-74
2022/05/27 09:10:10;;;;;;;22.10;12.30;;;;;;;38.07;40.73;101528.00;5029915;28;20578;-77
2022/05/27 09:12:43;;;;;;;18.03;10.40;;;;;;;38.11;40.02;101537.13;5046844;28;20420;-70
2022/05/27 09:15:32;;;;;;;32.60;9.87;;;;;;;38.07;40.08;101527.19;5031491;28;20428;-71
2022/05/27 09:18:24;;;;;;;23.90;11.20;;;;;;;38.14;39.80;101538.47;5033158;28;20461;-72
2022/05/27 09:21:25;;;;;;;17.77;7.17;;;;;;;37.97;39.83;101533.53;5030726;28;20443;-72
2022/05/27 09:24:16;;;;;;;14.87;7.07;;;;;;;37.93;39.08;101532.50;5046551;28;20945;-73
2022/05/27 09:27:02;;;;;;;16.63;6.43;;;;;;;37.91;39.10;101532.78;5046285;28;20442;-72
2022/05/27 09:29:48;;;;;;;11.53;7.63;;;;;;;37.96;39.20;101534.63;5030043;28;20567;-73
2022/05/27 09:32:48;;;;;;;21.10;8.00;;;;;;;37.93;39.07;101537.91;5031443;28;20525;-73
2022/05/27 09:35:20;;;;;;;17.20;6.90;;;;;;;37.82;39.19;101536.44;5031472;28;20408;-73
2022/05/27 09:37:50;;;;;;;12.00;6.73;;;;;;;37.81;39.53;101535.66;5015858;28;20432;-73
2022/05/27 09:40:25;;;;;;;13.20;6.53;;;;;;;37.88;39.51;101522.56;5030754;28;20499;-72
2022/05/27 09:43:32;;;;;;;13.07;6.13;;;;;;;37.96;39.30;101534.63;5031273;28;20415;-72
2022/05/27 09:46:01;;;;;;;14.73;5.67;;;;;;;37.89;39.39;101531.47;4984133;28;20450;-70
2022/05/27 09:48:28;;;;;;;12.13;6.67;;;;;;;37.80;39.15;101534.00;5031402;28;20443;-71
2022/05/27 09:50:57;;;;;;;13.40;6.97;;;;;;;37.86;39.76;101515.78;5031559;28;20905;-71
2022/05/27 09:53:48;;;;;;;17.93;8.03;;;;;;;37.95;39.91;101510.56;5030943;28;20423;-71
2022/05/27 09:56:17;;;;;;;20.73;9.80;;;;;;;37.99;40.16;101508.84;5014375;28;20522;-69
2022/05/27 09:58:45;;;;;;;14.43;7.77;;;;;;;38.03;39.87;101508.00;5031783;28;20432;-69
2022/05/27 10:01:28;;;;;;;20.13;8.73;;;;;;;38.01;40.11;101515.63;5027975;28;20462;-69
2022/05/27 10:04:04;;;;;;;15.50;9.27;;;;;;;38.01;40.00;101506.69;5031103;28;20459;-69
2022/05/27 10:06:33;;;;;;;12.97;8.10;;;;;;;38.00;39.96;101508.59;5030888;28;20415;-71
2022/05/27 10:09:00;;;;;;;15.43;9.03;;;;;;;38.06;39.96;101501.19;5031092;28;20510;-71
2022/05/27 10:11:32;;;;;;;14.57;7.70;;;;;;;38.12;39.82;101505.44;5029595;28;20484;-70
2022/05/27 10:14:10;;;;;;;17.60;9.37;;;;;;;38.11;40.11;101496.50;5029466;28;20424;-71
2022/05/27 10:16:39;;;;;;;22.13;9.70;;;;;;;38.07;40.03;101494.69;5030253;28;20439;-71
2022/05/27 10:19:22;;;;;;;16.80;8.20;;;;;;;38.13;39.45;101488.91;5029336;28;20459;-72
2022/05/27 10:21:50;;;;;;;18.40;8.90;;;;;;;38.17;39.66;101483.69;5043242;28;20407;-73
2022/05/27 10:24:23;;;;;;;16.53;9.07;;;;;;;38.11;40.02;101492.97;5030414;28;20854;-70
2022/05/27 10:27:17;;;;;;;13.27;9.37;;;;;;;38.04;40.19;101479.81;5030181;28;20751;-70
2022/05/27 10:29:52;;;;;;;37.57;11.73;;;;;;;38.07;40.04;101483.84;5045963;28;20541;-68
2022/05/27 10:32:33;;;;;;;22.30;9.00;;;;;;;38.08;40.60;101488.97;5030624;28;20415;-69
2022/05/27 10:35:02;;;;;;;25.07;11.27;;;;;;;38.12;40.35;101498.13;5030464;28;20422;-70
2022/05/27 10:37:46;;;;;;;25.63;10.30;;;;;;;38.14;40.03;101508.66;5031907;28;20462;-69
2022/05/27 10:40:34;;;;;;;17.93;9.80;;;;;;;38.00;40.79;101511.31;5050022;28;20434;-69
2022/05/27 10:43:19;;;;;;;16.33;9.70;;;;;;;38.12;40.67;101506.25;5048453;28;20416;-70
2022/05/27 10:45:49;;;;;;;23.87;10.37;;;;;;;38.16;40.80;101509.97;5034510;28;20430;-70
2022/05/27 10:48:30;;;;;;;20.97;10.33;;;;;;;38.17;40.54;101511.59;5034429;28;20957;-70
2022/05/27 10:51:19;;;;;;;18.20;10.20;;;;;;;38.13;41.04;101507.88;5033944;28;20424;-71
2022/05/27 10:54:11;;;;;;;20.00;11.80;;;;;;;38.20;40.60;101510.22;5034329;28;20439;-69
2022/05/27 10:56:41;;;;;;;16.87;10.07;;;;;;;38.27;40.89;101510.69;5033376;28;20470;-69
2022/05/27 11:02:19;;;;;;;17.10;10.00;;;;;;;38.31;40.50;101516.31;5035347;28;20581;-71
2022/05/27 11:04:48;;;;;;;19.03;9.87;;;;;;;38.29;40.53;101521.22;5033976;28;20790;-72
2022/05/27 11:07:14;;;;;;;20.23;10.17;;;;;;;38.28;40.69;101517.69;5041442;28;20416;-69
2022/05/27 11:10:05;;;;;;;22.83;9.87;;;;;;;38.33;40.10;101525.75;5033823;28;20518;-69
2022/05/27 11:16:15;;;;;;;28.27;14.40;;;;;;;38.40;40.66;101538.94;5035591;28;20477;-69
2022/05/27 11:19:11;;;;;;;25.87;12.20;;;;;;;38.38;41.01;101544.66;5033299;28;20460;-73
2022/05/27 11:21:40;;;;;;;24.10;12.90;;;;;;;38.42;41.19;101542.97;5048976;28;20419;-71
2022/05/27 11:24:24;;;;;;;23.20;13.97;;;;;;;38.39;40.88;101535.44;5033816;28;20891;-71
2022/05/27 11:27:19;;;;;;;23.93;13.47;;;;;;;38.43;40.57;101522.91;5035501;28;20388;-71
2022/05/27 11:30:03;;;;;;;20.47;13.23;;;;;;;38.44;40.95;101515.59;5030500;28;20527;-71
2022/05/27 11:33:07;;;;;;;21.17;13.90;;;;;;;38.50;41.25;101510.91;5049242;28;20419;-72
2022/05/27 11:36:21;;;;;;;21.83;12.70;;;;;;;38.49;41.24;101510.09;5048783;28;20991;-72
2022/05/27 11:39:33;;;;;;;22.23;11.90;;;;;;;38.55;41.08;101508.91;5024434;28;20451;-71
2022/05/27 11:42:08;;;;;;;14.30;11.03;;;;;;;38.53;40.69;101505.66;5030685;28;20399;-72
2022/05/27 11:44:39;;;;;;;18.17;11.43;;;;;;;38.46;41.04;101505.25;5033508;28;20458;-72
2022/05/27 11:47:39;;;;;;;21.63;11.30;;;;;;;38.43;41.08;101508.56;5034329;28;20411;-72
2022/05/27 11:50:33;;;;;;;21.57;10.63;;;;;;;38.52;41.19;101497.84;5030561;28;20992;-71
2022/05/27 11:53:06;;;;;;;22.60;12.83;;;;;;;38.53;40.91;101496.72;5021862;28;20519;-72
2022/05/27 11:55:48;;;;;;;21.33;12.40;;;;;;;38.46;41.32;101482.75;5029855;28;20417;-73
2022/05/27 11:58:29;;;;;;;20.70;12.37;;;;;;;38.40;41.39;101480.13;5040503;28;20459;-71
2022/05/27 12:01:31;;;;;;;21.17;14.20;;;;;;;38.36;41.05;101481.78;5027683;28;20575;-71
2022/05/27 12:04:30;;;;;;;20.13;12.80;;;;;;;38.42;41.60;101471.69;4980600;28;20433;-73
2022/05/27 12:07:37;;;;;;;19.03;12.67;;;;;;;38.49;41.34;101461.31;5010917;28;20510;-72